Time;durP1;ratioP1;P1;durP2;ratioP2;P2;SDS_P1;SDS_P2;PMS_P1;PMS_P2;Temp;Humidity;BMP_temperature;BMP_pressure;BME280_temperature;BME280_humidity;BME280_pressure;Samples;Min_cycle;Max_cycle;Signal;HPM_P1;HPM_P2
2023/12/24 00:01:38;;;;;;;1.13;0.70;;;;;;;8.92;100.00;100183.38;5077405;28;20212;-77
2023/12/24 00:04:03;;;;;;;1.77;0.60;;;;;;;8.89;100.00;100185.97;5077174;28;20194;-78
2023/12/24 00:06:29;;;;;;;0.80;0.67;;;;;;;8.85;100.00;100185.13;5075039;28;20197;-78
2023/12/24 00:08:54;;;;;;;0.73;0.50;;;;;;;8.83;100.00;100185.16;5087103;28;20689;-77
2023/12/24 00:11:19;;;;;;;0.50;0.50;;;;;;;8.90;100.00;100190.28;5075492;28;20187;-77
2023/12/24 00:13:45;;;;;;;0.93;0.70;;;;;;;8.89;100.00;100180.81;5077698;28;20192;-76
2023/12/24 00:16:10;;;;;;;0.70;0.60;;;;;;;8.88;100.00;100179.97;5077320;28;20209;-78
2023/12/24 00:18:35;;;;;;;1.30;0.70;;;;;;;8.88;100.00;100179.97;5078026;28;20189;-78
2023/12/24 00:21:01;;;;;;;1.30;0.50;;;;;;;8.89;100.00;100175.66;5076727;28;20245;-76
2023/12/24 00:23:26;;;;;;;0.70;0.63;;;;;;;8.88;100.00;100197.16;5074400;28;20185;-78
2023/12/24 00:25:51;;;;;;;1.13;0.70;;;;;;;8.88;100.00;100190.28;5076587;28;20189;-77
2023/12/24 00:28:17;;;;;;;0.80;0.60;;;;;;;8.93;100.00;100188.53;5075187;28;20714;-77
2023/12/24 00:30:42;;;;;;;0.67;0.50;;;;;;;8.93;100.00;100188.53;5076255;28;20716;-77
2023/12/24 00:33:07;;;;;;;0.83;0.70;;;;;;;8.90;100.00;100180.81;5077804;28;20189;-77
2023/12/24 00:35:34;;;;;;;0.67;0.53;;;;;;;8.90;100.00;100191.16;5080567;28;20217;-78
2023/12/24 00:37:59;;;;;;;0.53;0.50;;;;;;;8.90;100.00;100192.84;5081302;28;21034;-77
2023/12/24 00:40:25;;;;;;;0.90;0.47;;;;;;;8.90;100.00;100178.25;5081895;28;20197;-77
2023/12/24 00:42:51;;;;;;;0.77;0.57;;;;;;;8.90;100.00;100182.53;5077388;28;20273;-77
2023/12/24 00:45:16;;;;;;;0.73;0.53;;;;;;;8.91;100.00;100177.38;5078185;28;20318;-76
2023/12/24 00:47:41;;;;;;;0.80;0.60;;;;;;;8.91;100.00;100179.97;5080778;28;20185;-78
2023/12/24 00:50:08;;;;;;;0.60;0.60;;;;;;;8.92;100.00;100184.25;5075291;28;20285;-77
2023/12/24 00:52:37;;;;;;;0.67;0.60;;;;;;;8.89;100.00;100183.38;5079365;28;20185;-77
2023/12/24 00:55:03;;;;;;;0.80;0.60;;;;;;;8.88;100.00;100187.72;5077824;28;20243;-77
2023/12/24 00:57:28;;;;;;;1.27;0.60;;;;;;;8.90;100.00;100188.56;5080143;28;20210;-77
2023/12/24 00:59:54;;;;;;;1.00;0.60;;;;;;;8.92;100.00;100179.09;5077612;28;20628;-78
2023/12/24 01:02:19;;;;;;;1.10;0.50;;;;;;;8.88;100.00;100197.16;5075859;28;20185;-78
2023/12/24 01:04:45;;;;;;;1.23;0.60;;;;;;;8.89;100.00;100191.13;5077452;28;20222;-78
2023/12/24 01:07:10;;;;;;;1.83;0.50;;;;;;;8.92;100.00;100185.97;5073789;28;20316;-78
2023/12/24 01:09:37;;;;;;;0.93;0.80;;;;;;;8.88;100.00;100181.66;5078631;28;20644;-77
2023/12/24 01:12:03;;;;;;;0.93;0.50;;;;;;;8.83;100.00;100185.16;5079168;28;20181;-77
2023/12/24 01:14:28;;;;;;;0.93;0.53;;;;;;;8.81;100.00;100192.03;5077741;28;20188;-78
2023/12/24 01:16:53;;;;;;;1.60;0.77;;;;;;;8.88;100.00;100190.28;5073670;28;20562;-77
2023/12/24 01:19:20;;;;;;;1.00;0.60;;;;;;;8.95;100.00;100189.38;5078169;28;20208;-77
2023/12/24 01:21:45;;;;;;;0.97;0.53;;;;;;;8.88;100.00;100187.72;5078262;28;20342;-77
2023/12/24 01:24:11;;;;;;;1.00;0.50;;;;;;;8.90;100.00;100193.72;5072976;28;20277;-77
2023/12/24 01:26:37;;;;;;;0.90;0.70;;;;;;;8.88;100.00;100186.84;5079831;28;20888;-77
2023/12/24 01:29:03;;;;;;;1.40;0.70;;;;;;;8.92;100.00;100181.69;5076751;28;20603;-78
2023/12/24 01:31:28;;;;;;;0.43;0.40;;;;;;;8.90;100.00;100188.56;5079309;28;20185;-76
2023/12/24 01:33:53;;;;;;;0.50;0.50;;;;;;;8.92;100.00;100185.97;5076829;28;20572;-77
2023/12/24 01:36:22;;;;;;;1.07;0.50;;;;;;;8.91;100.00;100195.44;5079869;28;20300;-78
2023/12/24 01:38:48;;;;;;;0.83;0.50;;;;;;;8.97;100.00;100192.81;5078136;28;20185;-77
2023/12/24 01:41:13;;;;;;;0.80;0.60;;;;;;;9.02;100.00;100172.16;5076920;28;20289;-79
2023/12/24 01:43:43;;;;;;;0.60;0.60;;;;;;;9.03;100.00;100170.44;5075044;28;20283;-77
2023/12/24 01:46:09;;;;;;;1.27;0.70;;;;;;;8.96;100.00;100147.22;5079054;28;20670;-78
2023/12/24 01:48:36;;;;;;;0.70;0.60;;;;;;;9.00;100.00;100138.63;5080286;28;20176;-78
2023/12/24 01:51:02;;;;;;;0.97;0.60;;;;;;;8.98;100.00;100142.91;5073539;28;20271;-77
2023/12/24 01:53:28;;;;;;;1.00;0.77;;;;;;;9.00;100.00;100140.31;5075903;28;20272;-77
2023/12/24 01:55:53;;;;;;;1.07;0.83;;;;;;;9.01;100.00;100134.28;5073543;28;20217;-78
2023/12/24 01:58:19;;;;;;;0.80;0.57;;;;;;;9.00;100.00;100132.56;5079238;28;20189;-77
2023/12/24 02:00:47;;;;;;;0.70;0.60;;;;;;;8.99;100.00;100134.31;5077121;28;20207;-77
2023/12/24 02:03:12;;;;;;;0.83;0.60;;;;;;;9.00;100.00;100127.41;5088923;28;20582;-77
2023/12/24 02:05:38;;;;;;;2.20;0.50;;;;;;;8.95;100.00;100131.75;5078744;28;20185;-77
2023/12/24 02:08:04;;;;;;;0.90;0.50;;;;;;;8.98;100.00;100130.00;5076897;28;20280;-77
2023/12/24 02:10:30;;;;;;;0.73;0.50;;;;;;;9.02;100.00;100140.31;5079304;28;20206;-77
2023/12/24 02:12:55;;;;;;;0.60;0.40;;;;;;;9.00;100.00;100148.06;5078101;28;20189;-77
2023/12/24 02:15:20;;;;;;;1.13;0.50;;;;;;;8.96;100.00;100136.06;5073180;28;20655;-78
2023/12/24 02:17:46;;;;;;;1.57;0.60;;;;;;;8.95;100.00;100145.50;5078315;28;20246;-76
2023/12/24 02:20:12;;;;;;;0.77;0.60;;;;;;;8.91;100.00;100150.69;5078005;28;20295;-79
2023/12/24 02:22:37;;;;;;;0.57;0.57;;;;;;;8.87;100.00;100154.16;5077140;28;20237;-77
2023/12/24 02:25:04;;;;;;;0.80;0.53;;;;;;;8.80;100.00;100161.06;5081368;28;20193;-78
2023/12/24 02:27:37;;;;;;;0.80;0.60;;;;;;;8.82;100.00;100151.59;5077328;28;20237;-77
2023/12/24 02:30:10;;;;;;;1.97;0.90;;;;;;;8.89;100.00;100153.31;5085864;28;20217;-77
2023/12/24 02:32:37;;;;;;;0.70;0.50;;;;;;;8.87;100.00;100156.72;5081971;28;20193;-78
2023/12/24 02:35:04;;;;;;;0.60;0.50;;;;;;;8.89;100.00;100173.94;5080784;28;20213;-77
2023/12/24 02:37:30;;;;;;;0.47;0.47;;;;;;;8.85;100.00;100175.66;5079158;28;20296;-77
2023/12/24 02:39:56;;;;;;;0.50;0.50;;;;;;;8.84;100.00;100168.81;5081818;28;20774;-77
2023/12/24 02:42:21;;;;;;;0.60;0.50;;;;;;;8.90;100.00;100162.75;5085854;28;20218;-77
2023/12/24 02:44:47;;;;;;;1.00;0.53;;;;;;;8.88;100.00;100161.91;5082859;28;20572;-77
2023/12/24 02:47:12;;;;;;;0.80;0.60;;;;;;;8.81;100.00;100160.19;5089649;28;20284;-78
2023/12/24 02:49:37;;;;;;;0.90;0.73;;;;;;;8.82;100.00;100157.63;5083450;28;20228;-77
2023/12/24 02:52:04;;;;;;;0.77;0.50;;;;;;;8.83;100.00;100154.19;5079912;28;20198;-78
2023/12/24 02:54:29;;;;;;;1.23;0.80;;;;;;;8.88;100.00;100149.00;5080684;28;20201;-78
2023/12/24 02:56:54;;;;;;;1.10;0.70;;;;;;;8.85;100.00;100162.75;5075121;28;20209;-78
2023/12/24 02:59:20;;;;;;;1.00;0.60;;;;;;;8.83;100.00;100150.72;5072476;28;20955;-77
2023/12/24 03:01:45;;;;;;;1.17;0.60;;;;;;;8.82;100.00;100136.97;5081837;28;20181;-77
2023/12/24 03:04:11;;;;;;;1.13;0.80;;;;;;;8.84;100.00;100150.75;5077832;28;20189;-78
2023/12/24 03:06:36;;;;;;;1.27;0.73;;;;;;;8.84;100.00;100142.13;5077826;28;20292;-78
2023/12/24 03:09:02;;;;;;;1.57;0.60;;;;;;;8.85;100.00;100154.16;5076465;28;20212;-79
2023/12/24 03:11:27;;;;;;;1.57;0.70;;;;;;;8.81;100.00;100165.34;5078442;28;20185;-77
2023/12/24 03:13:52;;;;;;;0.63;0.63;;;;;;;8.81;100.00;100170.50;5081145;28;20281;-77
2023/12/24 03:16:18;;;;;;;0.53;0.53;;;;;;;8.87;100.00;100179.94;5075162;28;20208;-78
2023/12/24 03:18:43;;;;;;;0.93;0.60;;;;;;;8.84;100.00;100171.38;5079761;28;20181;-77
2023/12/24 03:21:08;;;;;;;0.60;0.60;;;;;;;8.89;100.00;100179.09;5078704;28;20181;-77
2023/12/24 03:23:34;;;;;;;1.03;0.60;;;;;;;8.88;100.00;100166.19;5080541;28;20783;-77
2023/12/24 03:25:59;;;;;;;1.27;0.80;;;;;;;8.84;100.00;100152.44;5077614;28;20883;-78
2023/12/24 03:28:25;;;;;;;0.80;0.70;;;;;;;8.83;100.00;100143.00;5074576;28;20211;-77
2023/12/24 03:30:50;;;;;;;1.00;0.57;;;;;;;8.85;100.00;100139.53;5080318;28;20764;-77
2023/12/24 03:33:15;;;;;;;0.50;0.50;;;;;;;8.92;100.00;100135.22;5069939;28;20190;-78
2023/12/24 03:35:43;;;;;;;0.50;0.40;;;;;;;8.87;100.00;100144.69;5072358;28;20268;-77
2023/12/24 03:38:08;;;;;;;0.93;0.70;;;;;;;8.90;100.00;100120.59;5078310;28;20189;-77
2023/12/24 03:40:34;;;;;;;0.83;0.70;;;;;;;8.89;100.00;100124.03;5076158;28;20201;-78
2023/12/24 03:42:59;;;;;;;1.07;0.87;;;;;;;8.90;100.00;100126.63;5076423;28;20661;-77
2023/12/24 03:45:24;;;;;;;1.13;0.83;;;;;;;8.93;100.00;100120.59;5077402;28;20585;-77
2023/12/24 03:47:50;;;;;;;0.73;0.63;;;;;;;8.92;100.00;100124.03;5077895;28;20688;-78
2023/12/24 03:50:15;;;;;;;0.80;0.50;;;;;;;8.90;100.00;100115.44;5074840;28;20204;-77
2023/12/24 03:52:40;;;;;;;1.67;0.70;;;;;;;8.91;100.00;100107.69;5078410;28;20647;-77
2023/12/24 03:55:06;;;;;;;0.70;0.70;;;;;;;8.94;100.00;100093.91;5073339;28;20293;-77
2023/12/24 03:57:31;;;;;;;3.40;0.60;;;;;;;8.91;100.00;100096.50;5078099;28;20181;-78
2023/12/24 03:59:56;;;;;;;0.50;0.50;;;;;;;8.94;100.00;100094.75;5077866;28;20244;-77
2023/12/24 04:02:24;;;;;;;0.70;0.60;;;;;;;8.92;100.00;100093.06;5073700;28;20902;-77
2023/12/24 04:04:50;;;;;;;0.97;0.60;;;;;;;8.92;100.00;100104.25;5071519;28;20181;-78
2023/12/24 04:07:16;;;;;;;0.80;0.60;;;;;;;8.95;100.00;100099.06;5075738;28;20205;-78
2023/12/24 04:09:42;;;;;;;0.73;0.50;;;;;;;8.96;100.00;100093.03;5078278;28;20212;-77
2023/12/24 04:12:08;;;;;;;1.33;0.77;;;;;;;8.95;100.00;100090.47;5074919;28;20710;-77
2023/12/24 04:14:37;;;;;;;0.90;0.50;;;;;;;8.94;100.00;100092.16;5076784;28;20557;-77
2023/12/24 04:17:04;;;;;;;0.80;0.50;;;;;;;8.93;100.00;100099.94;5075767;28;20193;-77
2023/12/24 04:19:29;;;;;;;1.47;0.63;;;;;;;8.95;100.00;100087.88;5074595;28;20216;-77
2023/12/24 04:21:54;;;;;;;1.83;0.70;;;;;;;8.94;100.00;100083.59;5076598;28;20183;-77
2023/12/24 04:24:20;;;;;;;0.90;0.70;;;;;;;8.91;100.00;100073.28;5074069;28;20671;-78
2023/12/24 04:26:45;;;;;;;0.57;0.40;;;;;;;8.88;100.00;100075.88;5077067;28;20177;-78
2023/12/24 04:29:11;;;;;;;0.50;0.50;;;;;;;8.93;100.00;100074.13;5075265;28;20282;-78
2023/12/24 04:31:39;;;;;;;1.77;0.73;;;;;;;8.90;100.00;100077.59;5080626;28;20181;-77
2023/12/24 04:34:06;;;;;;;1.60;0.73;;;;;;;8.84;100.00;100075.91;5072121;28;20182;-77
2023/12/24 04:36:33;;;;;;;1.20;0.60;;;;;;;8.83;100.00;100065.56;5074682;28;20261;-76
2023/12/24 04:38:58;;;;;;;1.50;0.70;;;;;;;8.81;100.00;100063.00;5076517;28;20205;-76
2023/12/24 04:41:23;;;;;;;1.27;0.70;;;;;;;8.81;100.00;100068.16;5073063;28;20645;-76
2023/12/24 04:43:49;;;;;;;0.70;0.70;;;;;;;8.79;100.00;100050.97;5079377;28;20210;-77
2023/12/24 04:46:14;;;;;;;0.63;0.60;;;;;;;8.75;100.00;100054.44;5075224;28;20178;-77
2023/12/24 04:48:39;;;;;;;0.87;0.63;;;;;;;8.76;100.00;100056.16;5070327;28;20593;-77
2023/12/24 04:51:05;;;;;;;0.60;0.60;;;;;;;8.76;100.00;100059.59;5072886;28;20207;-77
2023/12/24 04:53:31;;;;;;;1.73;0.70;;;;;;;8.76;100.00;100048.44;5076028;28;20321;-77
2023/12/24 04:55:57;;;;;;;0.60;0.60;;;;;;;8.69;100.00;100045.88;5074010;28;20216;-76
2023/12/24 04:58:22;;;;;;;0.50;0.50;;;;;;;8.72;100.00;100037.25;5073905;28;20177;-77
2023/12/24 05:00:47;;;;;;;0.97;0.80;;;;;;;8.68;100.00;100032.97;5078323;28;20299;-78
2023/12/24 05:03:12;;;;;;;1.23;0.80;;;;;;;8.65;100.00;100036.41;5070205;28;20186;-77
2023/12/24 05:05:38;;;;;;;0.93;0.70;;;;;;;8.63;100.00;100027.81;5077279;28;20184;-78
2023/12/24 05:08:03;;;;;;;0.60;0.60;;;;;;;8.63;100.00;100021.81;5075568;28;20201;-78
2023/12/24 05:10:35;;;;;;;0.87;0.70;;;;;;;8.57;100.00;100017.56;5114107;27;20612;-79
2023/12/24 05:13:00;;;;;;;0.67;0.60;;;;;;;8.63;100.00;100011.50;5095943;28;20219;-80
2023/12/24 05:15:26;;;;;;;0.50;0.40;;;;;;;8.58;100.00;100013.25;5090179;28;20191;-78
2023/12/24 05:17:51;;;;;;;0.77;0.63;;;;;;;8.63;100.00;100019.25;5095075;28;20212;-79
2023/12/24 05:20:17;;;;;;;0.60;0.60;;;;;;;8.58;100.00;100019.28;5093051;28;20281;-78
2023/12/24 05:22:42;;;;;;;1.13;0.70;;;;;;;8.57;100.00;100038.19;5085489;28;20228;-79
2023/12/24 05:25:07;;;;;;;1.50;0.60;;;;;;;8.58;100.00;100036.47;5088045;28;20196;-78
2023/12/24 05:27:33;;;;;;;1.23;0.60;;;;;;;8.60;100.00;100027.88;5095411;28;20609;-79
2023/12/24 05:29:58;;;;;;;1.17;0.63;;;;;;;8.61;100.00;100033.88;5099157;28;20216;-78
2023/12/24 05:32:24;;;;;;;0.70;0.70;;;;;;;8.65;100.00;100046.75;5097623;28;20195;-78
2023/12/24 05:34:49;;;;;;;1.13;0.77;;;;;;;8.63;100.00;100025.25;5090688;28;20185;-79
2023/12/24 05:37:14;;;;;;;1.50;0.70;;;;;;;8.64;100.00;100019.22;5087283;28;20829;-77
2023/12/24 05:39:43;;;;;;;0.60;0.50;;;;;;;8.66;100.00;100024.41;5088245;28;20351;-78
2023/12/24 05:42:08;;;;;;;0.93;0.70;;;;;;;8.69;100.00;100032.97;5090332;28;20195;-78
2023/12/24 05:44:34;;;;;;;1.33;0.60;;;;;;;8.70;100.00;100028.66;5088326;28;20230;-78
2023/12/24 05:47:00;;;;;;;0.83;0.80;;;;;;;8.75;100.00;100014.00;5089250;28;20281;-78
2023/12/24 05:49:25;;;;;;;0.90;0.70;;;;;;;8.79;100.00;100007.09;5090868;28;20248;-79
2023/12/24 05:51:50;;;;;;;2.00;0.53;;;;;;;8.80;100.00;100004.53;5088269;28;20193;-78
2023/12/24 05:54:15;;;;;;;0.97;0.63;;;;;;;8.79;100.00;99995.06;5093250;28;20192;-78
2023/12/24 05:56:41;;;;;;;0.97;0.60;;;;;;;8.80;100.00;99993.34;5089488;28;20224;-77
2023/12/24 05:59:06;;;;;;;1.03;0.60;;;;;;;8.78;100.00;99990.78;5091566;28;20647;-79
2023/12/24 06:01:32;;;;;;;1.03;0.60;;;;;;;8.84;100.00;99989.88;5096523;28;20190;-79
2023/12/24 06:03:58;;;;;;;0.70;0.60;;;;;;;8.81;100.00;99983.03;5094248;28;20195;-78
2023/12/24 06:06:23;;;;;;;1.43;0.80;;;;;;;8.84;100.00;99992.47;5091919;28;20185;-78
2023/12/24 06:08:48;;;;;;;0.70;0.60;;;;;;;8.85;100.00;99979.53;5089176;28;20625;-79
2023/12/24 06:11:17;;;;;;;0.50;0.50;;;;;;;8.87;100.00;99965.75;5090135;28;20180;-77
2023/12/24 06:13:42;;;;;;;0.57;0.40;;;;;;;8.92;100.00;99974.34;5094206;28;20193;-78
2023/12/24 06:16:08;;;;;;;0.67;0.50;;;;;;;8.95;100.00;99969.16;5093004;28;20624;-78
2023/12/24 06:18:33;;;;;;;0.60;0.60;;;;;;;8.97;100.00;99970.00;5095150;28;20180;-78
2023/12/24 06:20:59;;;;;;;0.60;0.60;;;;;;;9.02;100.00;99975.97;5078801;28;20314;-79
2023/12/24 06:23:24;;;;;;;1.10;0.60;;;;;;;9.05;100.00;99986.28;5080810;28;20196;-78
2023/12/24 06:25:50;;;;;;;0.60;0.33;;;;;;;9.06;100.00;99977.66;5080039;28;20271;-80
2023/12/24 06:28:15;;;;;;;0.90;0.60;;;;;;;9.06;100.00;99969.94;5079032;28;20220;-79
2023/12/24 06:30:40;;;;;;;0.83;0.60;;;;;;;9.10;100.00;99984.53;5081115;28;20296;-79
2023/12/24 06:33:06;;;;;;;0.90;0.63;;;;;;;9.10;100.00;99987.13;5075216;28;20177;-79
2023/12/24 06:35:31;;;;;;;1.13;0.50;;;;;;;9.12;100.00;99980.22;5077555;28;21024;-78
2023/12/24 06:37:57;;;;;;;1.00;0.70;;;;;;;9.14;100.00;99967.28;5074638;28;20195;-79
2023/12/24 06:40:22;;;;;;;0.97;0.47;;;;;;;9.12;100.00;99977.63;5074275;28;20194;-78
2023/12/24 06:42:49;;;;;;;0.70;0.30;;;;;;;9.10;100.00;99970.75;5073012;28;20188;-79
2023/12/24 06:45:14;;;;;;;0.93;0.50;;;;;;;9.14;100.00;99965.56;5070299;28;20277;-79
2023/12/24 06:47:39;;;;;;;0.40;0.40;;;;;;;9.13;100.00;99979.34;5067410;28;20181;-78
2023/12/24 06:50:05;;;;;;;1.03;0.40;;;;;;;9.15;100.00;99974.16;5074020;28;20232;-80
2023/12/24 06:52:32;;;;;;;0.90;0.60;;;;;;;9.14;100.00;99988.81;5073391;28;20200;-78
2023/12/24 06:54:58;;;;;;;0.53;0.30;;;;;;;9.15;100.00;99997.41;5069149;28;20268;-78
2023/12/24 06:57:23;;;;;;;0.60;0.40;;;;;;;9.15;100.00;99997.41;5076522;28;20237;-78
2023/12/24 06:59:49;;;;;;;0.90;0.50;;;;;;;9.14;100.00;99999.13;5077666;28;20817;-78
2023/12/24 07:02:15;;;;;;;1.50;0.43;;;;;;;9.12;100.00;99980.22;5073422;28;20186;-78
2023/12/24 07:04:40;;;;;;;0.73;0.33;;;;;;;9.13;100.00;99983.66;5078964;28;20220;-79
2023/12/24 07:07:06;;;;;;;1.33;0.40;;;;;;;9.10;100.00;99976.78;5073531;28;20278;-79
2023/12/24 07:09:32;;;;;;;1.30;0.40;;;;;;;9.13;100.00;99975.91;5076173;28;20682;-78
2023/12/24 07:11:57;;;;;;;0.83;0.50;;;;;;;9.12;100.00;99975.06;5068770;28;20241;-77
2023/12/24 07:14:22;;;;;;;0.80;0.50;;;;;;;9.14;100.00;99968.16;5074650;28;20595;-78
2023/12/24 07:16:48;;;;;;;0.63;0.30;;;;;;;9.17;100.00;99977.59;5067700;28;20238;-78
2023/12/24 07:19:13;;;;;;;0.30;0.30;;;;;;;9.24;100.00;99957.75;5068512;28;20792;-78
2023/12/24 07:21:38;;;;;;;0.53;0.43;;;;;;;9.21;100.00;99955.19;5081681;28;20266;-79
2023/12/24 07:24:04;;;;;;;0.70;0.30;;;;;;;9.23;100.00;99959.44;5069275;28;20198;-78
2023/12/24 07:26:29;;;;;;;0.40;0.40;;;;;;;9.28;100.00;99944.78;5077851;28;20217;-77
2023/12/24 07:28:54;;;;;;;0.70;0.30;;;;;;;9.30;100.00;99965.44;5080490;28;20315;-79
2023/12/24 07:31:20;;;;;;;0.63;0.30;;;;;;;9.34;100.00;99941.28;5073426;28;20185;-78
2023/12/24 07:33:45;;;;;;;0.83;0.40;;;;;;;9.32;100.00;99942.19;5079794;28;20173;-79
2023/12/24 07:36:11;;;;;;;0.70;0.40;;;;;;;9.28;100.00;99921.53;5080182;28;20188;-78
2023/12/24 07:38:36;;;;;;;0.47;0.47;;;;;;;9.31;100.00;99918.06;5079605;28;20890;-78
2023/12/24 07:41:03;;;;;;;0.10;0.10;;;;;;;9.33;100.00;99918.91;5072043;28;20250;-79
2023/12/24 07:43:29;;;;;;;0.30;0.17;;;;;;;9.36;100.00;99911.13;5071008;28;20269;-78
2023/12/24 07:45:54;;;;;;;0.40;0.20;;;;;;;9.36;100.00;99926.63;5081292;28;20208;-78
2023/12/24 07:48:19;;;;;;;0.20;0.20;;;;;;;9.33;100.00;99942.16;5075640;28;20609;-79
2023/12/24 07:50:45;;;;;;;0.63;0.40;;;;;;;9.36;100.00;99947.28;5068834;28;20205;-79
2023/12/24 07:53:10;;;;;;;0.33;0.30;;;;;;;9.39;100.00;99929.19;5088295;28;20185;-79
2023/12/24 07:55:35;;;;;;;0.93;0.30;;;;;;;9.40;100.00;99930.91;5079242;28;20552;-78
2023/12/24 07:58:01;;;;;;;0.30;0.30;;;;;;;9.43;100.00;99932.59;5073163;28;20191;-78
2023/12/24 08:00:26;;;;;;;0.67;0.20;;;;;;;9.45;100.00;99925.69;5075313;28;21001;-79
2023/12/24 08:02:51;;;;;;;0.67;0.30;;;;;;;9.49;100.00;99929.09;5073272;28;20312;-79
2023/12/24 08:05:17;;;;;;;0.30;0.30;;;;;;;9.45;100.00;99923.09;5066424;28;20314;-79
2023/12/24 08:07:42;;;;;;;0.63;0.33;;;;;;;9.41;100.00;99924.88;5074005;28;20182;-79
2023/12/24 08:10:08;;;;;;;0.70;0.40;;;;;;;9.42;100.00;99933.47;5067102;28;20206;-79
2023/12/24 08:12:33;;;;;;;0.27;0.27;;;;;;;9.43;100.00;99936.03;5071192;28;20193;-78
2023/12/24 08:14:59;;;;;;;0.43;0.30;;;;;;;9.42;100.00;99941.22;5069283;28;20269;-79
2023/12/24 08:17:24;;;;;;;0.27;0.27;;;;;;;9.44;100.00;99923.97;5079331;28;20189;-79
2023/12/24 08:19:49;;;;;;;0.40;0.23;;;;;;;9.43;100.00;99936.03;5077956;28;20197;-79
2023/12/24 08:22:15;;;;;;;0.40;0.30;;;;;;;9.39;100.00;99923.16;5075005;28;20238;-79
2023/12/24 08:24:40;;;;;;;0.40;0.23;;;;;;;9.42;100.00;99926.59;5079629;28;20186;-78
2023/12/24 08:27:06;;;;;;;0.40;0.40;;;;;;;9.42;100.00;99936.03;5074359;28;20546;-79
2023/12/24 08:29:32;;;;;;;0.50;0.40;;;;;;;9.44;100.00;99942.06;5076038;28;20217;-79
2023/12/24 08:31:57;;;;;;;1.97;0.30;;;;;;;9.45;100.00;99934.28;5078716;28;20177;-79
2023/12/24 08:34:23;;;;;;;0.40;0.40;;;;;;;9.46;100.00;99919.66;5080712;28;20195;-79
2023/12/24 08:36:48;;;;;;;0.63;0.40;;;;;;;9.49;100.00;99922.22;5074154;28;20188;-78
2023/12/24 08:39:14;;;;;;;0.80;0.30;;;;;;;9.58;100.00;99929.84;5075731;28;20331;-79
2023/12/24 08:41:40;;;;;;;0.97;0.30;;;;;;;9.60;100.00;99940.19;5074151;28;20219;-78
2023/12/24 08:44:05;;;;;;;0.30;0.30;;;;;;;9.63;100.00;99941.88;5078025;28;20203;-79
2023/12/24 08:46:30;;;;;;;0.40;0.40;;;;;;;9.64;100.00;99934.09;5077898;28;20189;-78
2023/12/24 08:48:55;;;;;;;0.47;0.20;;;;;;;9.66;100.00;99947.00;5079460;28;20201;-78
2023/12/24 08:51:21;;;;;;;0.70;0.30;;;;;;;9.69;100.00;99965.91;5076807;28;20189;-78
2023/12/24 08:53:46;;;;;;;1.50;0.30;;;;;;;9.70;100.00;99964.19;5072392;28;20248;-79
2023/12/24 08:56:13;;;;;;;1.03;0.40;;;;;;;9.72;100.00;99959.84;5077081;28;20193;-80
2023/12/24 08:58:38;;;;;;;0.40;0.40;;;;;;;9.68;100.00;99959.03;5078696;28;20186;-78
2023/12/24 09:01:04;;;;;;;0.47;0.40;;;;;;;9.69;100.00;99962.47;5075102;28;20212;-79
2023/12/24 09:03:29;;;;;;;0.63;0.63;;;;;;;9.65;100.00;99965.97;5076006;28;20182;-78
2023/12/24 09:05:55;;;;;;;1.77;0.80;;;;;;;9.57;100.00;99961.72;5075928;28;20564;-78
2023/12/24 09:08:21;;;;;;;1.43;1.30;;;;;;;9.61;100.00;99966.00;5075961;28;20184;-79
2023/12/24 09:10:46;;;;;;;0.60;0.60;;;;;;;9.64;100.00;99967.69;5079931;28;20209;-79
2023/12/24 09:13:11;;;;;;;0.73;0.60;;;;;;;9.63;100.00;99978.88;5084121;28;20196;-78
2023/12/24 09:15:37;;;;;;;1.63;0.70;;;;;;;9.65;100.00;99966.81;5073008;28;20188;-79
2023/12/24 09:18:03;;;;;;;0.83;0.80;;;;;;;9.66;100.00;99970.28;5076112;28;20825;-79
2023/12/24 09:20:28;;;;;;;1.40;0.70;;;;;;;9.66;100.00;99978.88;5075509;28;20296;-78
2023/12/24 09:22:54;;;;;;;0.77;0.77;;;;;;;9.69;100.00;99975.38;5071575;28;20185;-78
2023/12/24 09:25:19;;;;;;;2.10;0.77;;;;;;;9.67;100.00;99975.41;5076520;28;20189;-79
2023/12/24 09:27:44;;;;;;;1.30;0.50;;;;;;;9.70;100.00;99983.13;5075941;28;20217;-79
2023/12/24 09:30:10;;;;;;;1.17;1.00;;;;;;;9.66;100.00;99978.03;5073040;28;20222;-78
2023/12/24 09:32:36;;;;;;;2.30;2.00;;;;;;;9.60;100.00;99974.63;5072029;28;20711;-79
2023/12/24 09:35:01;;;;;;;0.83;0.70;;;;;;;9.62;100.00;99974.59;5076843;28;20206;-80
2023/12/24 09:37:26;;;;;;;2.90;2.60;;;;;;;9.55;100.00;99952.28;5080744;28;20276;-79
2023/12/24 09:39:52;;;;;;;1.77;0.70;;;;;;;9.46;100.00;99942.91;5082204;28;20196;-79
2023/12/24 09:42:18;;;;;;;0.97;0.80;;;;;;;9.54;100.00;99941.06;5083460;28;20189;-79
2023/12/24 09:44:44;;;;;;;0.80;0.60;;;;;;;9.57;100.00;99943.63;5082070;28;20186;-78
2023/12/24 09:47:09;;;;;;;1.07;0.97;;;;;;;9.59;100.00;99944.47;5081030;28;20181;-79
2023/12/24 09:49:35;;;;;;;1.50;1.10;;;;;;;9.60;100.00;99948.78;5081227;28;20565;-79
2023/12/24 09:52:00;;;;;;;0.80;0.73;;;;;;;9.60;100.00;99948.78;5079964;28;20228;-79
2023/12/24 09:54:26;;;;;;;0.83;0.50;;;;;;;9.52;100.00;99949.72;5077136;28;20258;-78
2023/12/24 09:56:51;;;;;;;0.63;0.63;;;;;;;9.53;100.00;99956.59;5085509;28;20202;-79
2023/12/24 09:59:17;;;;;;;1.40;1.00;;;;;;;9.51;100.00;99953.19;5084908;28;20201;-79
2023/12/24 10:01:44;;;;;;;1.90;1.80;;;;;;;9.58;100.00;99944.50;5086962;28;20977;-79
2023/12/24 10:04:10;;;;;;;1.30;1.20;;;;;;;9.63;100.00;99953.03;5080893;28;20189;-79
2023/12/24 10:06:55;;;;;;;2.30;1.20;;;;;;;9.65;100.00;99956.47;5084116;28;20301;-79
2023/12/24 10:09:23;;;;;;;3.77;3.47;;;;;;;9.66;100.00;99934.09;5081805;28;20291;-79
2023/12/24 10:12:04;;;;;;;1.70;1.60;;;;;;;9.67;100.00;99926.31;5079473;28;20687;-79
2023/12/24 10:14:29;;;;;;;2.10;2.00;;;;;;;9.66;100.00;99934.94;5076641;28;20298;-78
2023/12/24 10:16:54;;;;;;;1.40;1.10;;;;;;;9.71;100.00;99924.53;5081516;28;20711;-79
2023/12/24 10:19:23;;;;;;;0.80;0.80;;;;;;;9.76;100.00;99933.94;5079417;28;20206;-80
2023/12/24 10:22:01;;;;;;;0.70;0.70;;;;;;;9.75;100.00;99941.72;5078491;28;20191;-78
2023/12/24 10:24:29;;;;;;;0.97;0.87;;;;;;;9.75;100.00;99945.19;5078302;28;20281;-78
2023/12/24 10:27:11;;;;;;;0.83;0.80;;;;;;;9.74;100.00;99963.28;5079036;28;20189;-79
2023/12/24 10:29:39;;;;;;;0.83;0.57;;;;;;;9.70;100.00;99959.00;5082245;28;20220;-79
2023/12/24 10:32:05;;;;;;;1.27;1.00;;;;;;;9.62;100.00;99964.25;5082285;28;20185;-79
2023/12/24 10:34:32;;;;;;;0.70;0.70;;;;;;;9.58;100.00;99958.28;5079315;28;20270;-78
2023/12/24 10:36:59;;;;;;;1.63;0.60;;;;;;;9.55;100.00;99962.63;5081467;28;20261;-78
2023/12/24 10:39:25;;;;;;;1.50;1.10;;;;;;;9.56;100.00;99960.00;5078397;28;20595;-78
2023/12/24 10:41:53;;;;;;;0.97;0.60;;;;;;;9.58;100.00;99962.59;5079452;28;20190;-78
2023/12/24 10:44:18;;;;;;;0.63;0.50;;;;;;;9.60;100.00;99950.53;5078123;28;20202;-78
2023/12/24 10:46:44;;;;;;;0.90;0.60;;;;;;;9.57;100.00;99942.78;5080198;28;20286;-79
2023/12/24 10:49:09;;;;;;;0.70;0.70;;;;;;;9.57;100.00;99937.63;5076794;28;20217;-79
2023/12/24 10:51:34;;;;;;;0.80;0.70;;;;;;;9.58;100.00;99953.09;5078686;28;20627;-78
2023/12/24 10:54:00;;;;;;;1.00;0.60;;;;;;;9.50;100.00;99935.97;5082230;28;20214;-80
2023/12/24 10:56:33;;;;;;;0.80;0.80;;;;;;;9.45;100.00;99936.84;5083838;28;20473;-79
2023/12/24 10:59:20;;;;;;;1.30;0.93;;;;;;;9.45;100.00;99930.84;5086438;28;20182;-78
2023/12/24 11:01:48;;;;;;;2.13;0.53;;;;;;;9.43;100.00;99943.78;5082267;28;20198;-78
2023/12/24 11:04:45;;;;;;;1.77;0.80;;;;;;;9.50;100.00;99946.31;5080290;28;20255;-79
2023/12/24 11:07:49;;;;;;;0.57;0.57;;;;;;;9.52;100.00;99942.84;5081213;28;20709;-79
2023/12/24 11:10:39;;;;;;;1.00;0.60;;;;;;;9.56;100.00;99938.50;5002320;28;20217;-79
2023/12/24 11:13:12;;;;;;;0.63;0.30;;;;;;;9.53;100.00;99943.69;5004219;28;20289;-78
2023/12/24 11:15:45;;;;;;;0.60;0.50;;;;;;;9.54;100.00;99946.25;5063548;28;20193;-80
2023/12/24 11:18:10;;;;;;;1.50;0.50;;;;;;;9.55;100.00;99939.38;5080646;28;20191;-78
2023/12/24 11:20:39;;;;;;;1.53;0.50;;;;;;;9.51;100.00;99935.09;5081356;28;20207;-79
2023/12/24 11:23:04;;;;;;;0.63;0.53;;;;;;;9.50;100.00;99939.41;5076279;28;20272;-78
2023/12/24 11:25:38;;;;;;;0.70;0.50;;;;;;;9.46;100.00;99958.41;5076835;28;20264;-79